sensor_id;sensor_type;location;lat;lon;timestamp;P1;durP1;ratioP1;P2;durP2;ratioP2
78854;SDS011;68206;59.956;30.234;2023-04-22T00:00:49;9.73;;;3.65;;
78854;SDS011;68206;59.956;30.234;2023-04-22T00:03:20;10.43;;;3.63;;
78854;SDS011;68206;59.956;30.234;2023-04-22T00:05:49;19.27;;;3.95;;
78854;SDS011;68206;59.956;30.234;2023-04-22T00:08:17;8.60;;;3.47;;
78854;SDS011;68206;59.956;30.234;2023-04-22T00:10:45;21.65;;;5.10;;
78854;SDS011;68206;59.956;30.234;2023-04-22T00:13:13;18.33;;;6.05;;
78854;SDS011;68206;59.956;30.234;2023-04-22T00:15:41;11.50;;;3.63;;
78854;SDS011;68206;59.956;30.234;2023-04-22T00:18:10;50.22;;;6.03;;
78854;SDS011;68206;59.956;30.234;2023-04-22T00:20:41;15.35;;;4.35;;
78854;SDS011;68206;59.956;30.234;2023-04-22T00:23:10;17.55;;;4.15;;
78854;SDS011;68206;59.956;30.234;2023-04-22T00:25:39;16.13;;;3.80;;
78854;SDS011;68206;59.956;30.234;2023-04-22T00:28:07;18.92;;;3.97;;
78854;SDS011;68206;59.956;30.234;2023-04-22T00:30:35;21.10;;;4.68;;
78854;SDS011;68206;59.956;30.234;2023-04-22T00:33:03;20.58;;;4.30;;
78854;SDS011;68206;59.956;30.234;2023-04-22T00:35:33;22.23;;;4.18;;
78854;SDS011;68206;59.956;30.234;2023-04-22T00:38:01;19.58;;;3.42;;
78854;SDS011;68206;59.956;30.234;2023-04-22T00:40:29;23.85;;;4.28;;
78854;SDS011;68206;59.956;30.234;2023-04-22T00:42:57;10.63;;;3.40;;
78854;SDS011;68206;59.956;30.234;2023-04-22T00:45:26;9.70;;;3.88;;
78854;SDS011;68206;59.956;30.234;2023-04-22T00:47:55;27.08;;;4.90;;
78854;SDS011;68206;59.956;30.234;2023-04-22T00:50:23;13.50;;;3.80;;
78854;SDS011;68206;59.956;30.234;2023-04-22T00:52:53;14.82;;;4.28;;
78854;SDS011;68206;59.956;30.234;2023-04-22T00:55:21;15.55;;;3.65;;
78854;SDS011;68206;59.956;30.234;2023-04-22T00:57:49;13.82;;;3.40;;
78854;SDS011;68206;59.956;30.234;2023-04-22T01:00:18;7.85;;;3.53;;
78854;SDS011;68206;59.956;30.234;2023-04-22T01:02:52;20.83;;;3.47;;
78854;SDS011;68206;59.956;30.234;2023-04-22T01:05:22;15.43;;;4.18;;
78854;SDS011;68206;59.956;30.234;2023-04-22T01:07:52;16.38;;;3.65;;
78854;SDS011;68206;59.956;30.234;2023-04-22T01:10:21;17.48;;;3.58;;
78854;SDS011;68206;59.956;30.234;2023-04-22T01:12:50;19.70;;;3.90;;
78854;SDS011;68206;59.956;30.234;2023-04-22T01:15:18;16.25;;;4.00;;
78854;SDS011;68206;59.956;30.234;2023-04-22T01:17:47;17.35;;;3.38;;
78854;SDS011;68206;59.956;30.234;2023-04-22T01:20:15;15.30;;;4.13;;
78854;SDS011;68206;59.956;30.234;2023-04-22T01:22:44;9.10;;;4.30;;
78854;SDS011;68206;59.956;30.234;2023-04-22T01:25:16;14.27;;;3.00;;
78854;SDS011;68206;59.956;30.234;2023-04-22T01:27:44;11.35;;;4.13;;
78854;SDS011;68206;59.956;30.234;2023-04-22T01:30:13;5.57;;;3.25;;
78854;SDS011;68206;59.956;30.234;2023-04-22T01:32:41;8.05;;;3.50;;
78854;SDS011;68206;59.956;30.234;2023-04-22T01:35:10;6.18;;;3.00;;
78854;SDS011;68206;59.956;30.234;2023-04-22T01:37:38;7.75;;;3.10;;
78854;SDS011;68206;59.956;30.234;2023-04-22T01:40:08;8.52;;;3.75;;
78854;SDS011;68206;59.956;30.234;2023-04-22T01:42:38;4.82;;;3.08;;
78854;SDS011;68206;59.956;30.234;2023-04-22T01:45:06;4.80;;;3.00;;
78854;SDS011;68206;59.956;30.234;2023-04-22T01:47:35;8.68;;;2.97;;
78854;SDS011;68206;59.956;30.234;2023-04-22T01:50:04;7.45;;;2.88;;
78854;SDS011;68206;59.956;30.234;2023-04-22T01:52:33;5.53;;;2.72;;
78854;SDS011;68206;59.956;30.234;2023-04-22T01:55:02;11.00;;;3.15;;
78854;SDS011;68206;59.956;30.234;2023-04-22T01:57:30;7.57;;;3.47;;
78854;SDS011;68206;59.956;30.234;2023-04-22T02:00:01;6.80;;;2.80;;
78854;SDS011;68206;59.956;30.234;2023-04-22T02:02:37;5.53;;;2.75;;
78854;SDS011;68206;59.956;30.234;2023-04-22T02:05:06;6.15;;;3.13;;
78854;SDS011;68206;59.956;30.234;2023-04-22T02:07:35;7.80;;;2.75;;
78854;SDS011;68206;59.956;30.234;2023-04-22T02:10:03;5.70;;;2.58;;
78854;SDS011;68206;59.956;30.234;2023-04-22T02:12:32;6.72;;;2.92;;
78854;SDS011;68206;59.956;30.234;2023-04-22T02:15:02;6.80;;;3.05;;
78854;SDS011;68206;59.956;30.234;2023-04-22T02:17:31;8.18;;;2.90;;
78854;SDS011;68206;59.956;30.234;2023-04-22T02:19:59;9.73;;;2.80;;
78854;SDS011;68206;59.956;30.234;2023-04-22T02:22:30;5.57;;;2.67;;
78854;SDS011;68206;59.956;30.234;2023-04-22T02:24:59;7.75;;;2.67;;
78854;SDS011;68206;59.956;30.234;2023-04-22T02:27:28;9.15;;;2.45;;
78854;SDS011;68206;59.956;30.234;2023-04-22T02:29:56;10.55;;;3.08;;
78854;SDS011;68206;59.956;30.234;2023-04-22T02:32:26;12.25;;;3.30;;
78854;SDS011;68206;59.956;30.234;2023-04-22T02:34:54;10.07;;;2.72;;
78854;SDS011;68206;59.956;30.234;2023-04-22T02:37:22;12.73;;;3.33;;
78854;SDS011;68206;59.956;30.234;2023-04-22T02:39:52;12.45;;;3.83;;
78854;SDS011;68206;59.956;30.234;2023-04-22T02:42:21;11.52;;;3.58;;
78854;SDS011;68206;59.956;30.234;2023-04-22T02:44:49;11.43;;;4.60;;
78854;SDS011;68206;59.956;30.234;2023-04-22T02:47:19;9.90;;;3.40;;
78854;SDS011;68206;59.956;30.234;2023-04-22T02:49:49;7.22;;;3.35;;
78854;SDS011;68206;59.956;30.234;2023-04-22T02:52:17;15.52;;;2.67;;
78854;SDS011;68206;59.956;30.234;2023-04-22T02:54:45;8.32;;;3.70;;
78854;SDS011;68206;59.956;30.234;2023-04-22T02:57:13;22.65;;;5.38;;
78854;SDS011;68206;59.956;30.234;2023-04-22T02:59:41;13.00;;;3.97;;
78854;SDS011;68206;59.956;30.234;2023-04-22T03:02:12;9.02;;;3.40;;
78854;SDS011;68206;59.956;30.234;2023-04-22T03:05:02;14.30;;;3.60;;
78854;SDS011;68206;59.956;30.234;2023-04-22T03:07:30;11.48;;;3.67;;
78854;SDS011;68206;59.956;30.234;2023-04-22T03:09:58;8.23;;;3.58;;
78854;SDS011;68206;59.956;30.234;2023-04-22T03:12:28;11.82;;;3.70;;
78854;SDS011;68206;59.956;30.234;2023-04-22T03:14:56;8.20;;;3.03;;
78854;SDS011;68206;59.956;30.234;2023-04-22T03:17:29;10.95;;;2.78;;
78854;SDS011;68206;59.956;30.234;2023-04-22T03:19:59;5.72;;;2.75;;
78854;SDS011;68206;59.956;30.234;2023-04-22T03:22:30;8.57;;;2.92;;
78854;SDS011;68206;59.956;30.234;2023-04-22T03:25:00;6.50;;;2.75;;
78854;SDS011;68206;59.956;30.234;2023-04-22T03:27:28;7.30;;;2.47;;
78854;SDS011;68206;59.956;30.234;2023-04-22T03:29:56;6.90;;;2.70;;
78854;SDS011;68206;59.956;30.234;2023-04-22T03:32:25;6.53;;;2.70;;
78854;SDS011;68206;59.956;30.234;2023-04-22T03:35:11;12.43;;;3.63;;
78854;SDS011;68206;59.956;30.234;2023-04-22T03:37:42;5.65;;;2.70;;
78854;SDS011;68206;59.956;30.234;2023-04-22T03:40:13;4.88;;;2.42;;
78854;SDS011;68206;59.956;30.234;2023-04-22T03:42:42;5.63;;;2.10;;
78854;SDS011;68206;59.956;30.234;2023-04-22T03:45:11;7.20;;;2.50;;
78854;SDS011;68206;59.956;30.234;2023-04-22T03:50:20;7.68;;;2.28;;
78854;SDS011;68206;59.956;30.234;2023-04-22T03:52:52;6.22;;;2.45;;
78854;SDS011;68206;59.956;30.234;2023-04-22T03:55:21;14.82;;;2.60;;
78854;SDS011;68206;59.956;30.234;2023-04-22T03:57:51;6.00;;;2.60;;
78854;SDS011;68206;59.956;30.234;2023-04-22T04:00:19;6.80;;;2.80;;
78854;SDS011;68206;59.956;30.234;2023-04-22T04:05:28;4.15;;;2.25;;
78854;SDS011;68206;59.956;30.234;2023-04-22T04:07:59;6.70;;;2.90;;
78854;SDS011;68206;59.956;30.234;2023-04-22T04:10:27;6.72;;;2.95;;
78854;SDS011;68206;59.956;30.234;2023-04-22T04:12:58;9.05;;;2.80;;
78854;SDS011;68206;59.956;30.234;2023-04-22T04:15:30;4.63;;;2.58;;
78854;SDS011;68206;59.956;30.234;2023-04-22T04:18:04;5.78;;;2.53;;
78854;SDS011;68206;59.956;30.234;2023-04-22T04:20:32;7.18;;;2.83;;
78854;SDS011;68206;59.956;30.234;2023-04-22T04:23:02;11.23;;;2.90;;
78854;SDS011;68206;59.956;30.234;2023-04-22T04:25:31;12.65;;;3.60;;
78854;SDS011;68206;59.956;30.234;2023-04-22T04:28:08;6.30;;;2.88;;
78854;SDS011;68206;59.956;30.234;2023-04-22T04:30:38;9.32;;;2.80;;
78854;SDS011;68206;59.956;30.234;2023-04-22T04:33:07;7.72;;;2.50;;
78854;SDS011;68206;59.956;30.234;2023-04-22T04:35:41;8.43;;;2.67;;
78854;SDS011;68206;59.956;30.234;2023-04-22T04:38:16;7.88;;;2.88;;
78854;SDS011;68206;59.956;30.234;2023-04-22T04:40:46;10.85;;;3.30;;
78854;SDS011;68206;59.956;30.234;2023-04-22T04:43:18;20.02;;;4.03;;
78854;SDS011;68206;59.956;30.234;2023-04-22T04:45:58;7.82;;;3.50;;
78854;SDS011;68206;59.956;30.234;2023-04-22T04:48:31;5.65;;;2.60;;
78854;SDS011;68206;59.956;30.234;2023-04-22T04:51:07;4.57;;;2.63;;
78854;SDS011;68206;59.956;30.234;2023-04-22T04:53:43;4.68;;;2.58;;
78854;SDS011;68206;59.956;30.234;2023-04-22T04:56:11;9.10;;;2.88;;
78854;SDS011;68206;59.956;30.234;2023-04-22T04:58:40;6.18;;;2.72;;
78854;SDS011;68206;59.956;30.234;2023-04-22T05:01:14;5.43;;;2.35;;
78854;SDS011;68206;59.956;30.234;2023-04-22T05:03:44;5.18;;;2.40;;
78854;SDS011;68206;59.956;30.234;2023-04-22T05:06:15;5.15;;;2.30;;
78854;SDS011;68206;59.956;30.234;2023-04-22T05:08:49;8.25;;;2.85;;
78854;SDS011;68206;59.956;30.234;2023-04-22T05:11:18;8.07;;;2.60;;
78854;SDS011;68206;59.956;30.234;2023-04-22T05:13:49;9.70;;;3.15;;
78854;SDS011;68206;59.956;30.234;2023-04-22T05:16:24;4.90;;;2.92;;
78854;SDS011;68206;59.956;30.234;2023-04-22T05:18:52;4.85;;;2.42;;
78854;SDS011;68206;59.956;30.234;2023-04-22T05:21:21;5.15;;;2.53;;
78854;SDS011;68206;59.956;30.234;2023-04-22T05:23:51;8.18;;;2.75;;
78854;SDS011;68206;59.956;30.234;2023-04-22T05:26:21;11.88;;;3.03;;
78854;SDS011;68206;59.956;30.234;2023-04-22T05:28:50;7.20;;;2.65;;
78854;SDS011;68206;59.956;30.234;2023-04-22T05:31:18;6.20;;;2.63;;
78854;SDS011;68206;59.956;30.234;2023-04-22T05:33:46;8.45;;;2.83;;
78854;SDS011;68206;59.956;30.234;2023-04-22T05:36:14;8.25;;;3.08;;
78854;SDS011;68206;59.956;30.234;2023-04-22T05:38:45;14.25;;;3.33;;
78854;SDS011;68206;59.956;30.234;2023-04-22T05:41:15;4.13;;;2.72;;
78854;SDS011;68206;59.956;30.234;2023-04-22T05:43:44;11.55;;;3.58;;
78854;SDS011;68206;59.956;30.234;2023-04-22T05:48:45;10.40;;;3.38;;
78854;SDS011;68206;59.956;30.234;2023-04-22T05:51:33;10.27;;;3.03;;
78854;SDS011;68206;59.956;30.234;2023-04-22T05:54:01;6.22;;;3.30;;
78854;SDS011;68206;59.956;30.234;2023-04-22T05:56:31;9.50;;;3.30;;
78854;SDS011;68206;59.956;30.234;2023-04-22T05:58:59;7.28;;;3.88;;
78854;SDS011;68206;59.956;30.234;2023-04-22T06:01:28;9.40;;;4.03;;
78854;SDS011;68206;59.956;30.234;2023-04-22T06:04:03;10.73;;;4.53;;
78854;SDS011;68206;59.956;30.234;2023-04-22T06:06:32;8.68;;;3.60;;
78854;SDS011;68206;59.956;30.234;2023-04-22T06:09:00;6.75;;;3.85;;
78854;SDS011;68206;59.956;30.234;2023-04-22T06:11:29;6.68;;;3.40;;
78854;SDS011;68206;59.956;30.234;2023-04-22T06:13:58;9.80;;;3.53;;
78854;SDS011;68206;59.956;30.234;2023-04-22T06:16:27;8.55;;;3.92;;
78854;SDS011;68206;59.956;30.234;2023-04-22T06:18:55;9.90;;;3.90;;
78854;SDS011;68206;59.956;30.234;2023-04-22T06:21:24;11.23;;;3.75;;
78854;SDS011;68206;59.956;30.234;2023-04-22T06:23:52;13.27;;;4.43;;
78854;SDS011;68206;59.956;30.234;2023-04-22T06:26:20;10.02;;;3.80;;
78854;SDS011;68206;59.956;30.234;2023-04-22T06:28:50;7.85;;;4.22;;
78854;SDS011;68206;59.956;30.234;2023-04-22T06:31:19;7.53;;;3.88;;
78854;SDS011;68206;59.956;30.234;2023-04-22T06:33:47;6.82;;;3.90;;
78854;SDS011;68206;59.956;30.234;2023-04-22T06:36:17;13.77;;;4.55;;
78854;SDS011;68206;59.956;30.234;2023-04-22T06:38:51;10.65;;;4.13;;
78854;SDS011;68206;59.956;30.234;2023-04-22T06:41:35;5.63;;;3.63;;
78854;SDS011;68206;59.956;30.234;2023-04-22T06:44:21;6.57;;;3.22;;
78854;SDS011;68206;59.956;30.234;2023-04-22T06:47:10;16.55;;;4.45;;
78854;SDS011;68206;59.956;30.234;2023-04-22T06:49:46;7.82;;;3.58;;
78854;SDS011;68206;59.956;30.234;2023-04-22T06:52:18;9.63;;;3.78;;
78854;SDS011;68206;59.956;30.234;2023-04-22T06:54:52;10.30;;;4.07;;
78854;SDS011;68206;59.956;30.234;2023-04-22T06:57:21;10.07;;;4.10;;
78854;SDS011;68206;59.956;30.234;2023-04-22T06:59:51;7.07;;;3.28;;
78854;SDS011;68206;59.956;30.234;2023-04-22T07:02:20;7.68;;;3.63;;
78854;SDS011;68206;59.956;30.234;2023-04-22T07:04:48;7.93;;;3.72;;
78854;SDS011;68206;59.956;30.234;2023-04-22T07:07:17;10.85;;;3.83;;
78854;SDS011;68206;59.956;30.234;2023-04-22T07:09:45;17.45;;;3.97;;
78854;SDS011;68206;59.956;30.234;2023-04-22T07:12:13;11.85;;;3.63;;
78854;SDS011;68206;59.956;30.234;2023-04-22T07:14:41;10.15;;;3.55;;
78854;SDS011;68206;59.956;30.234;2023-04-22T07:17:12;6.97;;;3.10;;
78854;SDS011;68206;59.956;30.234;2023-04-22T07:19:40;7.18;;;3.22;;
78854;SDS011;68206;59.956;30.234;2023-04-22T07:22:08;7.00;;;3.00;;
78854;SDS011;68206;59.956;30.234;2023-04-22T07:24:36;6.50;;;3.03;;
78854;SDS011;68206;59.956;30.234;2023-04-22T07:27:05;8.77;;;3.13;;
78854;SDS011;68206;59.956;30.234;2023-04-22T07:29:33;9.63;;;3.75;;
78854;SDS011;68206;59.956;30.234;2023-04-22T07:32:01;6.03;;;3.55;;
78854;SDS011;68206;59.956;30.234;2023-04-22T07:34:31;8.55;;;3.35;;
78854;SDS011;68206;59.956;30.234;2023-04-22T07:36:59;16.30;;;3.95;;
78854;SDS011;68206;59.956;30.234;2023-04-22T07:39:28;6.82;;;2.95;;
78854;SDS011;68206;59.956;30.234;2023-04-22T07:41:56;6.85;;;3.10;;
78854;SDS011;68206;59.956;30.234;2023-04-22T07:44:24;11.77;;;3.40;;
78854;SDS011;68206;59.956;30.234;2023-04-22T07:46:52;11.68;;;3.95;;
78854;SDS011;68206;59.956;30.234;2023-04-22T07:49:21;8.95;;;3.80;;
78854;SDS011;68206;59.956;30.234;2023-04-22T07:51:51;9.60;;;3.65;;
78854;SDS011;68206;59.956;30.234;2023-04-22T07:54:19;14.20;;;3.67;;
78854;SDS011;68206;59.956;30.234;2023-04-22T07:56:47;6.35;;;3.30;;
78854;SDS011;68206;59.956;30.234;2023-04-22T07:59:15;7.75;;;3.58;;
78854;SDS011;68206;59.956;30.234;2023-04-22T08:01:43;9.00;;;3.70;;
78854;SDS011;68206;59.956;30.234;2023-04-22T08:04:12;6.15;;;3.65;;
78854;SDS011;68206;59.956;30.234;2023-04-22T08:06:41;11.43;;;4.43;;
78854;SDS011;68206;59.956;30.234;2023-04-22T08:09:11;9.90;;;3.53;;
78854;SDS011;68206;59.956;30.234;2023-04-22T08:11:39;8.00;;;3.38;;
78854;SDS011;68206;59.956;30.234;2023-04-22T08:14:07;12.38;;;3.70;;
78854;SDS011;68206;59.956;30.234;2023-04-22T08:16:38;10.18;;;3.63;;
78854;SDS011;68206;59.956;30.234;2023-04-22T08:19:07;13.43;;;4.53;;
78854;SDS011;68206;59.956;30.234;2023-04-22T08:21:35;10.02;;;3.92;;
78854;SDS011;68206;59.956;30.234;2023-04-22T08:24:04;13.52;;;4.18;;
78854;SDS011;68206;59.956;30.234;2023-04-22T08:26:35;9.52;;;3.80;;
78854;SDS011;68206;59.956;30.234;2023-04-22T08:29:05;8.32;;;2.95;;
78854;SDS011;68206;59.956;30.234;2023-04-22T08:31:33;13.95;;;4.32;;
78854;SDS011;68206;59.956;30.234;2023-04-22T08:34:02;6.18;;;3.13;;
78854;SDS011;68206;59.956;30.234;2023-04-22T08:36:30;10.02;;;3.10;;
78854;SDS011;68206;59.956;30.234;2023-04-22T08:38:58;9.63;;;3.78;;
78854;SDS011;68206;59.956;30.234;2023-04-22T08:41:27;9.63;;;3.33;;
78854;SDS011;68206;59.956;30.234;2023-04-22T08:43:58;7.72;;;3.78;;
78854;SDS011;68206;59.956;30.234;2023-04-22T08:46:27;10.45;;;3.88;;
78854;SDS011;68206;59.956;30.234;2023-04-22T08:48:57;13.73;;;3.60;;
78854;SDS011;68206;59.956;30.234;2023-04-22T08:51:29;11.40;;;3.80;;
78854;SDS011;68206;59.956;30.234;2023-04-22T08:53:59;7.30;;;3.75;;
78854;SDS011;68206;59.956;30.234;2023-04-22T08:56:27;10.32;;;3.47;;
78854;SDS011;68206;59.956;30.234;2023-04-22T08:58:56;9.75;;;3.58;;
78854;SDS011;68206;59.956;30.234;2023-04-22T09:01:26;8.80;;;3.75;;
78854;SDS011;68206;59.956;30.234;2023-04-22T09:03:58;15.15;;;3.95;;
78854;SDS011;68206;59.956;30.234;2023-04-22T09:06:27;9.80;;;3.20;;
78854;SDS011;68206;59.956;30.234;2023-04-22T09:08:59;9.15;;;3.47;;
78854;SDS011;68206;59.956;30.234;2023-04-22T09:11:27;8.90;;;3.38;;
78854;SDS011;68206;59.956;30.234;2023-04-22T09:13:56;12.07;;;3.55;;
78854;SDS011;68206;59.956;30.234;2023-04-22T09:16:26;9.18;;;2.97;;
78854;SDS011;68206;59.956;30.234;2023-04-22T09:18:56;6.72;;;3.25;;
78854;SDS011;68206;59.956;30.234;2023-04-22T09:21:25;7.80;;;3.38;;
78854;SDS011;68206;59.956;30.234;2023-04-22T09:23:54;13.35;;;3.40;;
78854;SDS011;68206;59.956;30.234;2023-04-22T09:26:24;9.40;;;3.30;;
78854;SDS011;68206;59.956;30.234;2023-04-22T09:28:53;8.43;;;3.17;;
78854;SDS011;68206;59.956;30.234;2023-04-22T09:31:26;8.80;;;3.10;;
78854;SDS011;68206;59.956;30.234;2023-04-22T09:33:55;13.13;;;3.28;;
78854;SDS011;68206;59.956;30.234;2023-04-22T09:36:24;12.05;;;3.40;;
78854;SDS011;68206;59.956;30.234;2023-04-22T09:38:54;6.97;;;3.08;;
78854;SDS011;68206;59.956;30.234;2023-04-22T09:41:27;8.40;;;3.20;;
78854;SDS011;68206;59.956;30.234;2023-04-22T09:43:56;6.63;;;3.20;;
78854;SDS011;68206;59.956;30.234;2023-04-22T09:46:27;13.23;;;4.82;;
78854;SDS011;68206;59.956;30.234;2023-04-22T09:48:56;10.63;;;3.35;;
78854;SDS011;68206;59.956;30.234;2023-04-22T09:51:26;11.48;;;3.38;;
78854;SDS011;68206;59.956;30.234;2023-04-22T09:53:58;9.30;;;3.03;;
78854;SDS011;68206;59.956;30.234;2023-04-22T09:56:39;11.75;;;3.55;;
78854;SDS011;68206;59.956;30.234;2023-04-22T09:59:08;5.80;;;2.85;;
78854;SDS011;68206;59.956;30.234;2023-04-22T10:01:38;6.85;;;2.85;;
78854;SDS011;68206;59.956;30.234;2023-04-22T10:04:07;6.05;;;2.97;;
78854;SDS011;68206;59.956;30.234;2023-04-22T10:06:38;10.43;;;3.20;;
78854;SDS011;68206;59.956;30.234;2023-04-22T10:09:07;10.05;;;3.40;;
78854;SDS011;68206;59.956;30.234;2023-04-22T10:11:35;5.80;;;3.15;;
78854;SDS011;68206;59.956;30.234;2023-04-22T10:14:04;8.57;;;3.05;;
78854;SDS011;68206;59.956;30.234;2023-04-22T10:16:32;7.18;;;2.88;;
78854;SDS011;68206;59.956;30.234;2023-04-22T10:19:03;7.30;;;2.67;;
78854;SDS011;68206;59.956;30.234;2023-04-22T10:21:33;7.53;;;3.42;;
78854;SDS011;68206;59.956;30.234;2023-04-22T10:24:04;5.20;;;2.80;;
78854;SDS011;68206;59.956;30.234;2023-04-22T10:26:40;7.43;;;3.53;;
78854;SDS011;68206;59.956;30.234;2023-04-22T10:29:12;6.85;;;2.85;;
78854;SDS011;68206;59.956;30.234;2023-04-22T10:31:42;10.27;;;3.20;;
78854;SDS011;68206;59.956;30.234;2023-04-22T10:34:13;5.90;;;2.90;;
78854;SDS011;68206;59.956;30.234;2023-04-22T10:36:51;6.80;;;3.08;;
78854;SDS011;68206;59.956;30.234;2023-04-22T10:39:26;17.20;;;3.40;;
78854;SDS011;68206;59.956;30.234;2023-04-22T10:41:56;11.20;;;3.20;;
78854;SDS011;68206;59.956;30.234;2023-04-22T10:44:44;12.93;;;3.63;;
78854;SDS011;68206;59.956;30.234;2023-04-22T10:47:23;11.32;;;3.40;;
78854;SDS011;68206;59.956;30.234;2023-04-22T10:50:13;7.45;;;3.20;;
78854;SDS011;68206;59.956;30.234;2023-04-22T10:55:15;8.43;;;3.30;;
78854;SDS011;68206;59.956;30.234;2023-04-22T10:57:44;11.77;;;3.30;;
78854;SDS011;68206;59.956;30.234;2023-04-22T11:00:23;8.63;;;3.28;;
78854;SDS011;68206;59.956;30.234;2023-04-22T11:03:08;9.48;;;2.70;;
78854;SDS011;68206;59.956;30.234;2023-04-22T11:05:40;5.45;;;2.60;;
78854;SDS011;68206;59.956;30.234;2023-04-22T11:08:13;10.25;;;3.22;;
78854;SDS011;68206;59.956;30.234;2023-04-22T11:10:47;7.80;;;2.95;;
78854;SDS011;68206;59.956;30.234;2023-04-22T11:13:17;4.93;;;2.85;;
78854;SDS011;68206;59.956;30.234;2023-04-22T11:15:48;5.63;;;2.85;;
78854;SDS011;68206;59.956;30.234;2023-04-22T11:18:18;7.40;;;2.80;;
78854;SDS011;68206;59.956;30.234;2023-04-22T11:20:49;5.18;;;2.53;;
78854;SDS011;68206;59.956;30.234;2023-04-22T11:23:21;6.28;;;2.20;;
78854;SDS011;68206;59.956;30.234;2023-04-22T11:25:54;5.85;;;2.78;;
78854;SDS011;68206;59.956;30.234;2023-04-22T11:28:24;10.48;;;3.42;;
78854;SDS011;68206;59.956;30.234;2023-04-22T11:30:59;5.95;;;2.83;;
78854;SDS011;68206;59.956;30.234;2023-04-22T11:33:28;14.52;;;3.22;;
78854;SDS011;68206;59.956;30.234;2023-04-22T11:35:59;18.08;;;2.88;;
78854;SDS011;68206;59.956;30.234;2023-04-22T11:38:28;6.95;;;3.45;;
78854;SDS011;68206;59.956;30.234;2023-04-22T11:40:56;6.05;;;3.03;;
78854;SDS011;68206;59.956;30.234;2023-04-22T11:43:24;9.15;;;2.88;;
78854;SDS011;68206;59.956;30.234;2023-04-22T11:45:54;6.82;;;3.05;;
78854;SDS011;68206;59.956;30.234;2023-04-22T11:48:27;7.63;;;3.03;;
78854;SDS011;68206;59.956;30.234;2023-04-22T11:51:09;6.45;;;2.92;;
78854;SDS011;68206;59.956;30.234;2023-04-22T11:53:38;6.78;;;2.67;;
78854;SDS011;68206;59.956;30.234;2023-04-22T11:56:19;5.55;;;2.55;;
78854;SDS011;68206;59.956;30.234;2023-04-22T11:58:48;7.22;;;2.45;;
78854;SDS011;68206;59.956;30.234;2023-04-22T12:01:16;6.40;;;2.85;;
78854;SDS011;68206;59.956;30.234;2023-04-22T12:03:44;5.95;;;2.70;;
78854;SDS011;68206;59.956;30.234;2023-04-22T12:06:14;5.93;;;2.45;;
78854;SDS011;68206;59.956;30.234;2023-04-22T12:08:43;4.30;;;2.25;;
78854;SDS011;68206;59.956;30.234;2023-04-22T12:11:13;6.65;;;2.50;;
78854;SDS011;68206;59.956;30.234;2023-04-22T12:13:41;9.75;;;2.22;;
78854;SDS011;68206;59.956;30.234;2023-04-22T12:16:12;16.23;;;2.47;;
78854;SDS011;68206;59.956;30.234;2023-04-22T12:18:46;6.78;;;2.25;;
78854;SDS011;68206;59.956;30.234;2023-04-22T12:21:18;7.13;;;2.30;;
78854;SDS011;68206;59.956;30.234;2023-04-22T12:26:18;7.93;;;2.45;;
78854;SDS011;68206;59.956;30.234;2023-04-22T12:28:52;7.72;;;2.13;;
78854;SDS011;68206;59.956;30.234;2023-04-22T12:31:21;7.75;;;2.13;;
78854;SDS011;68206;59.956;30.234;2023-04-22T12:33:49;12.15;;;3.58;;
78854;SDS011;68206;59.956;30.234;2023-04-22T12:36:19;10.43;;;2.40;;
78854;SDS011;68206;59.956;30.234;2023-04-22T12:38:47;10.90;;;2.50;;
78854;SDS011;68206;59.956;30.234;2023-04-22T12:41:16;4.97;;;2.00;;
78854;SDS011;68206;59.956;30.234;2023-04-22T12:43:44;12.63;;;2.60;;
78854;SDS011;68206;59.956;30.234;2023-04-22T12:46:13;7.03;;;2.47;;
78854;SDS011;68206;59.956;30.234;2023-04-22T12:48:41;4.82;;;2.35;;
78854;SDS011;68206;59.956;30.234;2023-04-22T12:51:09;7.13;;;2.50;;
78854;SDS011;68206;59.956;30.234;2023-04-22T12:53:39;9.80;;;2.10;;
78854;SDS011;68206;59.956;30.234;2023-04-22T12:56:07;15.57;;;2.83;;
78854;SDS011;68206;59.956;30.234;2023-04-22T12:58:35;9.93;;;2.30;;
78854;SDS011;68206;59.956;30.234;2023-04-22T13:01:03;4.50;;;2.10;;
78854;SDS011;68206;59.956;30.234;2023-04-22T13:03:31;19.63;;;2.47;;
78854;SDS011;68206;59.956;30.234;2023-04-22T13:06:00;5.80;;;2.10;;
78854;SDS011;68206;59.956;30.234;2023-04-22T13:08:32;6.55;;;1.80;;
78854;SDS011;68206;59.956;30.234;2023-04-22T13:11:02;9.93;;;2.45;;
78854;SDS011;68206;59.956;30.234;2023-04-22T13:13:30;14.30;;;2.92;;
78854;SDS011;68206;59.956;30.234;2023-04-22T13:15:58;8.07;;;2.25;;
78854;SDS011;68206;59.956;30.234;2023-04-22T13:18:26;7.55;;;1.95;;
78854;SDS011;68206;59.956;30.234;2023-04-22T13:20:54;5.97;;;2.10;;
78854;SDS011;68206;59.956;30.234;2023-04-22T13:23:22;7.68;;;2.15;;
78854;SDS011;68206;59.956;30.234;2023-04-22T13:25:51;5.15;;;2.17;;
78854;SDS011;68206;59.956;30.234;2023-04-22T13:28:21;10.05;;;2.67;;
78854;SDS011;68206;59.956;30.234;2023-04-22T13:30:49;6.43;;;2.10;;
78854;SDS011;68206;59.956;30.234;2023-04-22T13:33:17;13.15;;;3.25;;
78854;SDS011;68206;59.956;30.234;2023-04-22T13:35:45;22.38;;;3.00;;
78854;SDS011;68206;59.956;30.234;2023-04-22T13:38:13;9.98;;;2.40;;
78854;SDS011;68206;59.956;30.234;2023-04-22T13:40:41;7.35;;;2.05;;
78854;SDS011;68206;59.956;30.234;2023-04-22T13:43:10;8.13;;;2.03;;
78854;SDS011;68206;59.956;30.234;2023-04-22T13:45:40;5.28;;;2.00;;
78854;SDS011;68206;59.956;30.234;2023-04-22T13:48:08;4.50;;;2.20;;
78854;SDS011;68206;59.956;30.234;2023-04-22T13:50:36;2.60;;;1.55;;
78854;SDS011;68206;59.956;30.234;2023-04-22T13:53:08;9.05;;;1.85;;
78854;SDS011;68206;59.956;30.234;2023-04-22T13:55:37;8.15;;;1.90;;
78854;SDS011;68206;59.956;30.234;2023-04-22T13:58:06;4.82;;;1.73;;
78854;SDS011;68206;59.956;30.234;2023-04-22T14:00:34;8.70;;;2.38;;
78854;SDS011;68206;59.956;30.234;2023-04-22T14:03:04;7.63;;;1.88;;
78854;SDS011;68206;59.956;30.234;2023-04-22T14:05:32;4.85;;;2.55;;
78854;SDS011;68206;59.956;30.234;2023-04-22T14:08:01;11.45;;;1.70;;
78854;SDS011;68206;59.956;30.234;2023-04-22T14:10:29;7.60;;;2.30;;
78854;SDS011;68206;59.956;30.234;2023-04-22T14:12:57;3.88;;;1.90;;
78854;SDS011;68206;59.956;30.234;2023-04-22T14:15:25;9.50;;;2.10;;
78854;SDS011;68206;59.956;30.234;2023-04-22T14:17:54;9.82;;;2.35;;
78854;SDS011;68206;59.956;30.234;2023-04-22T14:20:24;6.13;;;2.30;;
78854;SDS011;68206;59.956;30.234;2023-04-22T14:22:52;9.98;;;3.10;;
78854;SDS011;68206;59.956;30.234;2023-04-22T14:25:20;9.32;;;2.08;;
78854;SDS011;68206;59.956;30.234;2023-04-22T14:27:48;6.10;;;2.00;;
78854;SDS011;68206;59.956;30.234;2023-04-22T14:30:17;4.75;;;2.05;;
78854;SDS011;68206;59.956;30.234;2023-04-22T14:32:47;4.53;;;1.60;;
78854;SDS011;68206;59.956;30.234;2023-04-22T14:35:16;7.10;;;2.10;;
78854;SDS011;68206;59.956;30.234;2023-04-22T14:37:47;6.47;;;1.83;;
78854;SDS011;68206;59.956;30.234;2023-04-22T14:40:15;7.63;;;2.22;;
78854;SDS011;68206;59.956;30.234;2023-04-22T14:42:45;4.85;;;2.03;;
78854;SDS011;68206;59.956;30.234;2023-04-22T14:45:13;6.90;;;2.00;;
78854;SDS011;68206;59.956;30.234;2023-04-22T14:47:41;5.50;;;1.75;;
78854;SDS011;68206;59.956;30.234;2023-04-22T14:50:09;6.35;;;1.73;;
78854;SDS011;68206;59.956;30.234;2023-04-22T14:52:37;11.18;;;2.10;;
78854;SDS011;68206;59.956;30.234;2023-04-22T14:55:08;3.75;;;1.70;;
78854;SDS011;68206;59.956;30.234;2023-04-22T14:57:49;3.95;;;1.80;;
78854;SDS011;68206;59.956;30.234;2023-04-22T15:00:18;6.50;;;1.90;;